sensor_id;sensor_type;location;lat;lon;timestamp;P1;durP1;ratioP1;P2;durP2;ratioP2
11125;SDS011;5617;54.046;10.676;2022-08-01T00:01:51;7.47;;;6.37;;
11125;SDS011;5617;54.046;10.676;2022-08-01T00:03:59;7.33;;;6.13;;
11125;SDS011;5617;54.046;10.676;2022-08-01T00:06:08;7.00;;;6.40;;
11125;SDS011;5617;54.046;10.676;2022-08-01T00:08:15;7.50;;;6.73;;
11125;SDS011;5617;54.046;10.676;2022-08-01T00:10:23;7.37;;;6.77;;
11125;SDS011;5617;54.046;10.676;2022-08-01T00:12:30;10.33;;;7.80;;
11125;SDS011;5617;54.046;10.676;2022-08-01T00:14:38;8.20;;;7.50;;
11125;SDS011;5617;54.046;10.676;2022-08-01T00:16:45;8.47;;;6.97;;
11125;SDS011;5617;54.046;10.676;2022-08-01T00:18:53;10.53;;;8.00;;
11125;SDS011;5617;54.046;10.676;2022-08-01T00:21:00;8.80;;;8.00;;
11125;SDS011;5617;54.046;10.676;2022-08-01T00:23:09;10.47;;;8.47;;
11125;SDS011;5617;54.046;10.676;2022-08-01T00:25:17;8.73;;;7.90;;
11125;SDS011;5617;54.046;10.676;2022-08-01T00:27:24;9.67;;;8.67;;
11125;SDS011;5617;54.046;10.676;2022-08-01T00:29:32;10.80;;;9.40;;
11125;SDS011;5617;54.046;10.676;2022-08-01T00:31:39;10.57;;;9.53;;
11125;SDS011;5617;54.046;10.676;2022-08-01T00:33:46;10.70;;;9.60;;
11125;SDS011;5617;54.046;10.676;2022-08-01T00:35:54;13.43;;;10.77;;
11125;SDS011;5617;54.046;10.676;2022-08-01T00:38:01;11.43;;;10.33;;
11125;SDS011;5617;54.046;10.676;2022-08-01T00:40:11;12.93;;;10.50;;
11125;SDS011;5617;54.046;10.676;2022-08-01T00:42:18;14.63;;;11.73;;
11125;SDS011;5617;54.046;10.676;2022-08-01T00:44:26;13.13;;;11.70;;
11125;SDS011;5617;54.046;10.676;2022-08-01T00:46:33;13.73;;;11.97;;
11125;SDS011;5617;54.046;10.676;2022-08-01T00:48:42;15.70;;;12.10;;
11125;SDS011;5617;54.046;10.676;2022-08-01T00:50:50;13.47;;;11.77;;
11125;SDS011;5617;54.046;10.676;2022-08-01T00:52:58;15.33;;;12.53;;
11125;SDS011;5617;54.046;10.676;2022-08-01T00:55:06;16.83;;;13.20;;
11125;SDS011;5617;54.046;10.676;2022-08-01T00:57:17;16.50;;;13.30;;
11125;SDS011;5617;54.046;10.676;2022-08-01T00:59:24;18.03;;;13.77;;
11125;SDS011;5617;54.046;10.676;2022-08-01T01:01:32;16.37;;;13.57;;
11125;SDS011;5617;54.046;10.676;2022-08-01T01:03:40;16.77;;;13.53;;
11125;SDS011;5617;54.046;10.676;2022-08-01T01:05:48;20.23;;;14.30;;
11125;SDS011;5617;54.046;10.676;2022-08-01T01:08:03;19.13;;;13.83;;
11125;SDS011;5617;54.046;10.676;2022-08-01T01:10:16;15.90;;;13.70;;
11125;SDS011;5617;54.046;10.676;2022-08-01T01:12:29;15.73;;;14.03;;
11125;SDS011;5617;54.046;10.676;2022-08-01T01:14:49;17.50;;;13.87;;
11125;SDS011;5617;54.046;10.676;2022-08-01T01:17:03;16.57;;;14.83;;
11125;SDS011;5617;54.046;10.676;2022-08-01T01:19:16;20.60;;;14.47;;
11125;SDS011;5617;54.046;10.676;2022-08-01T01:21:39;20.10;;;14.60;;
11125;SDS011;5617;54.046;10.676;2022-08-01T01:24:04;16.37;;;14.10;;
11125;SDS011;5617;54.046;10.676;2022-08-01T01:26:27;17.37;;;14.23;;
11125;SDS011;5617;54.046;10.676;2022-08-01T01:28:53;17.67;;;13.87;;
11125;SDS011;5617;54.046;10.676;2022-08-01T01:31:10;19.47;;;14.13;;
11125;SDS011;5617;54.046;10.676;2022-08-01T01:33:20;16.77;;;14.20;;
11125;SDS011;5617;54.046;10.676;2022-08-01T01:35:31;16.40;;;13.83;;
11125;SDS011;5617;54.046;10.676;2022-08-01T01:37:42;20.07;;;14.67;;
11125;SDS011;5617;54.046;10.676;2022-08-01T01:39:52;18.27;;;14.00;;
11125;SDS011;5617;54.046;10.676;2022-08-01T01:42:02;17.10;;;14.27;;
11125;SDS011;5617;54.046;10.676;2022-08-01T01:44:13;17.50;;;14.73;;
11125;SDS011;5617;54.046;10.676;2022-08-01T01:46:24;19.47;;;15.03;;
11125;SDS011;5617;54.046;10.676;2022-08-01T01:48:33;19.53;;;15.07;;
11125;SDS011;5617;54.046;10.676;2022-08-01T01:50:42;22.60;;;15.77;;
11125;SDS011;5617;54.046;10.676;2022-08-01T01:52:52;17.90;;;15.57;;
11125;SDS011;5617;54.046;10.676;2022-08-01T01:55:04;18.40;;;14.60;;
11125;SDS011;5617;54.046;10.676;2022-08-01T01:57:14;19.70;;;14.83;;
11125;SDS011;5617;54.046;10.676;2022-08-01T01:59:25;20.73;;;16.73;;
11125;SDS011;5617;54.046;10.676;2022-08-01T02:01:35;20.97;;;16.07;;
11125;SDS011;5617;54.046;10.676;2022-08-01T02:03:43;25.97;;;17.20;;
11125;SDS011;5617;54.046;10.676;2022-08-01T02:05:54;20.97;;;16.77;;
11125;SDS011;5617;54.046;10.676;2022-08-01T02:08:03;25.53;;;16.70;;
11125;SDS011;5617;54.046;10.676;2022-08-01T02:10:12;22.17;;;17.30;;
11125;SDS011;5617;54.046;10.676;2022-08-01T02:12:22;23.80;;;17.27;;
11125;SDS011;5617;54.046;10.676;2022-08-01T02:14:32;24.70;;;17.77;;
11125;SDS011;5617;54.046;10.676;2022-08-01T02:16:42;28.37;;;17.63;;
11125;SDS011;5617;54.046;10.676;2022-08-01T02:18:51;23.93;;;17.57;;
11125;SDS011;5617;54.046;10.676;2022-08-01T02:20:59;23.13;;;16.37;;
11125;SDS011;5617;54.046;10.676;2022-08-01T02:23:11;21.80;;;16.70;;
11125;SDS011;5617;54.046;10.676;2022-08-01T02:25:20;23.30;;;16.47;;
11125;SDS011;5617;54.046;10.676;2022-08-01T02:27:33;24.80;;;16.77;;
11125;SDS011;5617;54.046;10.676;2022-08-01T02:29:50;24.13;;;17.83;;
11125;SDS011;5617;54.046;10.676;2022-08-01T02:31:59;26.23;;;17.83;;
11125;SDS011;5617;54.046;10.676;2022-08-01T02:34:09;28.90;;;18.40;;
11125;SDS011;5617;54.046;10.676;2022-08-01T02:36:19;24.93;;;18.73;;
11125;SDS011;5617;54.046;10.676;2022-08-01T02:38:29;27.53;;;19.53;;
11125;SDS011;5617;54.046;10.676;2022-08-01T02:40:41;30.57;;;20.13;;
11125;SDS011;5617;54.046;10.676;2022-08-01T02:42:51;29.57;;;19.67;;
11125;SDS011;5617;54.046;10.676;2022-08-01T02:45:03;32.07;;;19.57;;
11125;SDS011;5617;54.046;10.676;2022-08-01T02:47:14;31.57;;;20.27;;
11125;SDS011;5617;54.046;10.676;2022-08-01T02:49:24;29.83;;;20.07;;
11125;SDS011;5617;54.046;10.676;2022-08-01T02:51:34;30.87;;;19.97;;
11125;SDS011;5617;54.046;10.676;2022-08-01T02:53:42;29.37;;;20.53;;
11125;SDS011;5617;54.046;10.676;2022-08-01T02:55:53;30.23;;;19.83;;
11125;SDS011;5617;54.046;10.676;2022-08-01T02:58:03;29.80;;;19.20;;
11125;SDS011;5617;54.046;10.676;2022-08-01T03:00:16;27.17;;;18.80;;
11125;SDS011;5617;54.046;10.676;2022-08-01T03:02:28;25.03;;;17.40;;
11125;SDS011;5617;54.046;10.676;2022-08-01T03:04:39;25.93;;;17.57;;
11125;SDS011;5617;54.046;10.676;2022-08-01T03:06:48;23.80;;;17.03;;
11125;SDS011;5617;54.046;10.676;2022-08-01T03:08:58;22.33;;;15.37;;
11125;SDS011;5617;54.046;10.676;2022-08-01T03:11:25;20.20;;;14.47;;
11125;SDS011;5617;54.046;10.676;2022-08-01T03:13:34;22.30;;;14.83;;
11125;SDS011;5617;54.046;10.676;2022-08-01T03:15:45;18.17;;;13.70;;
11125;SDS011;5617;54.046;10.676;2022-08-01T03:17:53;18.30;;;13.53;;
11125;SDS011;5617;54.046;10.676;2022-08-01T03:20:03;18.77;;;13.97;;
11125;SDS011;5617;54.046;10.676;2022-08-01T03:22:16;17.07;;;12.93;;
11125;SDS011;5617;54.046;10.676;2022-08-01T03:24:25;18.57;;;12.03;;
11125;SDS011;5617;54.046;10.676;2022-08-01T03:26:34;17.03;;;12.63;;
11125;SDS011;5617;54.046;10.676;2022-08-01T03:28:49;16.73;;;12.50;;
11125;SDS011;5617;54.046;10.676;2022-08-01T03:31:06;17.17;;;13.20;;
11125;SDS011;5617;54.046;10.676;2022-08-01T03:33:14;13.90;;;11.97;;
11125;SDS011;5617;54.046;10.676;2022-08-01T03:35:23;19.73;;;12.97;;
11125;SDS011;5617;54.046;10.676;2022-08-01T03:37:34;17.30;;;13.20;;
11125;SDS011;5617;54.046;10.676;2022-08-01T03:39:48;16.07;;;13.03;;
11125;SDS011;5617;54.046;10.676;2022-08-01T03:41:59;15.30;;;13.07;;
11125;SDS011;5617;54.046;10.676;2022-08-01T03:44:14;17.93;;;12.93;;
11125;SDS011;5617;54.046;10.676;2022-08-01T03:46:28;14.60;;;13.03;;
11125;SDS011;5617;54.046;10.676;2022-08-01T03:48:42;17.50;;;13.37;;
11125;SDS011;5617;54.046;10.676;2022-08-01T03:50:58;16.60;;;13.07;;
11125;SDS011;5617;54.046;10.676;2022-08-01T03:53:09;16.23;;;13.67;;
11125;SDS011;5617;54.046;10.676;2022-08-01T03:55:29;17.23;;;13.20;;
11125;SDS011;5617;54.046;10.676;2022-08-01T03:57:39;18.83;;;13.37;;
11125;SDS011;5617;54.046;10.676;2022-08-01T03:59:47;20.07;;;13.90;;
11125;SDS011;5617;54.046;10.676;2022-08-01T04:01:57;18.17;;;14.40;;
11125;SDS011;5617;54.046;10.676;2022-08-01T04:04:05;19.00;;;14.87;;
11125;SDS011;5617;54.046;10.676;2022-08-01T04:06:13;20.53;;;14.77;;
11125;SDS011;5617;54.046;10.676;2022-08-01T04:08:21;19.40;;;14.87;;
11125;SDS011;5617;54.046;10.676;2022-08-01T04:10:29;17.37;;;14.17;;
11125;SDS011;5617;54.046;10.676;2022-08-01T04:12:36;18.60;;;14.33;;
11125;SDS011;5617;54.046;10.676;2022-08-01T04:14:44;18.57;;;15.30;;
11125;SDS011;5617;54.046;10.676;2022-08-01T04:16:54;19.50;;;15.00;;
11125;SDS011;5617;54.046;10.676;2022-08-01T04:19:03;18.80;;;15.17;;
11125;SDS011;5617;54.046;10.676;2022-08-01T04:21:13;16.43;;;13.83;;
11125;SDS011;5617;54.046;10.676;2022-08-01T04:23:23;18.97;;;14.57;;
11125;SDS011;5617;54.046;10.676;2022-08-01T04:25:33;18.50;;;13.70;;
11125;SDS011;5617;54.046;10.676;2022-08-01T04:27:45;19.17;;;14.57;;
11125;SDS011;5617;54.046;10.676;2022-08-01T04:29:56;18.93;;;14.43;;
11125;SDS011;5617;54.046;10.676;2022-08-01T04:32:07;18.37;;;13.40;;
11125;SDS011;5617;54.046;10.676;2022-08-01T04:34:19;17.13;;;13.97;;
11125;SDS011;5617;54.046;10.676;2022-08-01T04:36:30;17.17;;;14.40;;
11125;SDS011;5617;54.046;10.676;2022-08-01T04:38:42;18.73;;;13.83;;
11125;SDS011;5617;54.046;10.676;2022-08-01T04:40:52;14.27;;;12.77;;
11125;SDS011;5617;54.046;10.676;2022-08-01T04:43:00;17.53;;;13.60;;
11125;SDS011;5617;54.046;10.676;2022-08-01T04:45:08;18.00;;;13.13;;
11125;SDS011;5617;54.046;10.676;2022-08-01T04:47:16;15.53;;;12.90;;
11125;SDS011;5617;54.046;10.676;2022-08-01T04:49:25;17.17;;;12.57;;
11125;SDS011;5617;54.046;10.676;2022-08-01T04:51:33;18.87;;;13.93;;
11125;SDS011;5617;54.046;10.676;2022-08-01T04:53:41;16.67;;;12.93;;
11125;SDS011;5617;54.046;10.676;2022-08-01T04:55:48;16.37;;;12.17;;
11125;SDS011;5617;54.046;10.676;2022-08-01T04:57:56;14.03;;;12.50;;
11125;SDS011;5617;54.046;10.676;2022-08-01T05:00:04;13.93;;;12.47;;
11125;SDS011;5617;54.046;10.676;2022-08-01T05:02:15;15.53;;;12.07;;
11125;SDS011;5617;54.046;10.676;2022-08-01T05:04:25;15.00;;;12.30;;
11125;SDS011;5617;54.046;10.676;2022-08-01T05:06:33;17.57;;;12.80;;
11125;SDS011;5617;54.046;10.676;2022-08-01T05:08:40;15.10;;;11.67;;
11125;SDS011;5617;54.046;10.676;2022-08-01T05:10:48;13.20;;;10.70;;
11125;SDS011;5617;54.046;10.676;2022-08-01T05:12:55;12.53;;;10.87;;
11125;SDS011;5617;54.046;10.676;2022-08-01T05:15:03;12.97;;;11.20;;
11125;SDS011;5617;54.046;10.676;2022-08-01T05:17:12;12.50;;;11.00;;
11125;SDS011;5617;54.046;10.676;2022-08-01T05:19:19;11.43;;;10.23;;
11125;SDS011;5617;54.046;10.676;2022-08-01T05:21:29;12.10;;;10.27;;
11125;SDS011;5617;54.046;10.676;2022-08-01T05:23:37;13.40;;;10.67;;
11125;SDS011;5617;54.046;10.676;2022-08-01T05:25:44;13.77;;;11.00;;
11125;SDS011;5617;54.046;10.676;2022-08-01T05:27:52;11.17;;;9.90;;
11125;SDS011;5617;54.046;10.676;2022-08-01T05:29:59;11.80;;;10.60;;
11125;SDS011;5617;54.046;10.676;2022-08-01T05:32:07;11.77;;;10.27;;
11125;SDS011;5617;54.046;10.676;2022-08-01T05:34:15;13.17;;;9.90;;
11125;SDS011;5617;54.046;10.676;2022-08-01T05:36:23;11.07;;;9.93;;
11125;SDS011;5617;54.046;10.676;2022-08-01T05:38:32;12.53;;;10.50;;
11125;SDS011;5617;54.046;10.676;2022-08-01T05:40:39;10.80;;;9.70;;
11125;SDS011;5617;54.046;10.676;2022-08-01T05:42:47;12.87;;;10.07;;
11125;SDS011;5617;54.046;10.676;2022-08-01T05:44:54;11.33;;;8.63;;
11125;SDS011;5617;54.046;10.676;2022-08-01T05:47:02;11.03;;;8.70;;
11125;SDS011;5617;54.046;10.676;2022-08-01T05:49:09;10.03;;;9.00;;
11125;SDS011;5617;54.046;10.676;2022-08-01T05:51:17;8.97;;;7.50;;
11125;SDS011;5617;54.046;10.676;2022-08-01T05:53:24;7.67;;;6.47;;
11125;SDS011;5617;54.046;10.676;2022-08-01T05:55:34;8.30;;;6.63;;
11125;SDS011;5617;54.046;10.676;2022-08-01T05:57:41;6.77;;;6.07;;
11125;SDS011;5617;54.046;10.676;2022-08-01T05:59:48;8.00;;;6.10;;
11125;SDS011;5617;54.046;10.676;2022-08-01T06:01:56;6.30;;;5.67;;
11125;SDS011;5617;54.046;10.676;2022-08-01T06:04:06;5.90;;;5.30;;
11125;SDS011;5617;54.046;10.676;2022-08-01T06:06:13;6.43;;;5.30;;
11125;SDS011;5617;54.046;10.676;2022-08-01T06:08:21;7.10;;;5.33;;
11125;SDS011;5617;54.046;10.676;2022-08-01T06:10:29;6.67;;;5.10;;
11125;SDS011;5617;54.046;10.676;2022-08-01T06:12:40;5.47;;;4.80;;
11125;SDS011;5617;54.046;10.676;2022-08-01T06:14:48;5.63;;;5.13;;
11125;SDS011;5617;54.046;10.676;2022-08-01T06:16:56;6.93;;;5.33;;
11125;SDS011;5617;54.046;10.676;2022-08-01T06:19:04;6.90;;;5.67;;
11125;SDS011;5617;54.046;10.676;2022-08-01T06:21:11;6.93;;;4.80;;
11125;SDS011;5617;54.046;10.676;2022-08-01T06:23:19;5.50;;;5.00;;
11125;SDS011;5617;54.046;10.676;2022-08-01T06:25:27;6.70;;;4.90;;
11125;SDS011;5617;54.046;10.676;2022-08-01T06:27:34;7.57;;;4.70;;
11125;SDS011;5617;54.046;10.676;2022-08-01T06:29:43;5.53;;;5.03;;
11125;SDS011;5617;54.046;10.676;2022-08-01T06:31:51;5.30;;;4.90;;
11125;SDS011;5617;54.046;10.676;2022-08-01T06:33:59;5.77;;;5.27;;
11125;SDS011;5617;54.046;10.676;2022-08-01T06:36:07;5.07;;;4.57;;
11125;SDS011;5617;54.046;10.676;2022-08-01T06:38:14;5.20;;;4.70;;
11125;SDS011;5617;54.046;10.676;2022-08-01T06:40:22;5.23;;;4.83;;
11125;SDS011;5617;54.046;10.676;2022-08-01T06:42:30;6.10;;;5.10;;
11125;SDS011;5617;54.046;10.676;2022-08-01T06:44:41;5.33;;;4.70;;
11125;SDS011;5617;54.046;10.676;2022-08-01T06:46:50;5.10;;;4.60;;
11125;SDS011;5617;54.046;10.676;2022-08-01T06:48:57;6.27;;;4.87;;
11125;SDS011;5617;54.046;10.676;2022-08-01T06:51:05;4.77;;;4.27;;
11125;SDS011;5617;54.046;10.676;2022-08-01T06:53:17;5.93;;;4.73;;
11125;SDS011;5617;54.046;10.676;2022-08-01T06:55:24;5.10;;;4.63;;
11125;SDS011;5617;54.046;10.676;2022-08-01T06:57:39;5.57;;;4.60;;
11125;SDS011;5617;54.046;10.676;2022-08-01T06:59:52;5.50;;;5.00;;
11125;SDS011;5617;54.046;10.676;2022-08-01T07:02:01;5.23;;;4.73;;
11125;SDS011;5617;54.046;10.676;2022-08-01T07:04:09;5.10;;;4.60;;
11125;SDS011;5617;54.046;10.676;2022-08-01T07:06:20;5.60;;;4.70;;
11125;SDS011;5617;54.046;10.676;2022-08-01T07:08:31;4.90;;;4.50;;
11125;SDS011;5617;54.046;10.676;2022-08-01T07:10:38;4.83;;;4.43;;
11125;SDS011;5617;54.046;10.676;2022-08-01T07:12:46;4.27;;;3.80;;
11125;SDS011;5617;54.046;10.676;2022-08-01T07:14:53;4.60;;;4.20;;
11125;SDS011;5617;54.046;10.676;2022-08-01T07:17:02;5.60;;;4.07;;
11125;SDS011;5617;54.046;10.676;2022-08-01T07:19:10;4.97;;;3.97;;
11125;SDS011;5617;54.046;10.676;2022-08-01T07:21:18;5.83;;;4.03;;
11125;SDS011;5617;54.046;10.676;2022-08-01T07:23:26;4.67;;;4.20;;
11125;SDS011;5617;54.046;10.676;2022-08-01T07:25:33;4.23;;;3.70;;
11125;SDS011;5617;54.046;10.676;2022-08-01T07:27:41;3.77;;;3.47;;
11125;SDS011;5617;54.046;10.676;2022-08-01T07:29:48;4.60;;;3.33;;
11125;SDS011;5617;54.046;10.676;2022-08-01T07:31:56;3.93;;;3.63;;
11125;SDS011;5617;54.046;10.676;2022-08-01T07:34:07;3.90;;;3.47;;
11125;SDS011;5617;54.046;10.676;2022-08-01T07:36:15;3.80;;;3.50;;
11125;SDS011;5617;54.046;10.676;2022-08-01T07:38:23;3.90;;;3.40;;
11125;SDS011;5617;54.046;10.676;2022-08-01T07:40:31;6.50;;;3.60;;
11125;SDS011;5617;54.046;10.676;2022-08-01T07:42:38;3.60;;;3.20;;
11125;SDS011;5617;54.046;10.676;2022-08-01T07:44:49;4.40;;;3.03;;
11125;SDS011;5617;54.046;10.676;2022-08-01T07:46:56;3.87;;;3.47;;
11125;SDS011;5617;54.046;10.676;2022-08-01T07:49:04;4.33;;;3.77;;
11125;SDS011;5617;54.046;10.676;2022-08-01T07:51:13;3.87;;;3.57;;
11125;SDS011;5617;54.046;10.676;2022-08-01T07:53:20;3.63;;;2.80;;
11125;SDS011;5617;54.046;10.676;2022-08-01T07:55:28;3.20;;;2.60;;
11125;SDS011;5617;54.046;10.676;2022-08-01T07:57:37;2.70;;;2.50;;
11125;SDS011;5617;54.046;10.676;2022-08-01T07:59:45;2.83;;;2.00;;
11125;SDS011;5617;54.046;10.676;2022-08-01T08:01:52;2.90;;;2.17;;
11125;SDS011;5617;54.046;10.676;2022-08-01T08:04:02;2.17;;;1.90;;
11125;SDS011;5617;54.046;10.676;2022-08-01T08:06:10;1.97;;;1.87;;
11125;SDS011;5617;54.046;10.676;2022-08-01T08:08:18;2.00;;;1.90;;
11125;SDS011;5617;54.046;10.676;2022-08-01T08:10:26;2.23;;;1.90;;
11125;SDS011;5617;54.046;10.676;2022-08-01T08:12:33;1.90;;;1.70;;
11125;SDS011;5617;54.046;10.676;2022-08-01T08:14:41;2.60;;;2.00;;
11125;SDS011;5617;54.046;10.676;2022-08-01T08:16:49;1.70;;;1.60;;
11125;SDS011;5617;54.046;10.676;2022-08-01T08:18:57;4.20;;;1.77;;
11125;SDS011;5617;54.046;10.676;2022-08-01T08:21:05;2.77;;;1.60;;
11125;SDS011;5617;54.046;10.676;2022-08-01T08:23:12;1.90;;;1.80;;
11125;SDS011;5617;54.046;10.676;2022-08-01T08:25:38;2.13;;;1.90;;
11125;SDS011;5617;54.046;10.676;2022-08-01T08:27:46;1.90;;;1.80;;
11125;SDS011;5617;54.046;10.676;2022-08-01T08:29:54;2.57;;;1.97;;
11125;SDS011;5617;54.046;10.676;2022-08-01T08:32:02;3.13;;;2.20;;
11125;SDS011;5617;54.046;10.676;2022-08-01T08:34:10;2.07;;;1.77;;
11125;SDS011;5617;54.046;10.676;2022-08-01T08:36:18;3.50;;;1.80;;
11125;SDS011;5617;54.046;10.676;2022-08-01T08:38:25;2.43;;;2.13;;
11125;SDS011;5617;54.046;10.676;2022-08-01T08:40:34;4.10;;;1.97;;
11125;SDS011;5617;54.046;10.676;2022-08-01T08:42:44;2.43;;;1.90;;
11125;SDS011;5617;54.046;10.676;2022-08-01T08:44:53;3.87;;;1.70;;
11125;SDS011;5617;54.046;10.676;2022-08-01T08:47:01;3.67;;;1.80;;
11125;SDS011;5617;54.046;10.676;2022-08-01T08:49:11;3.07;;;1.97;;
11125;SDS011;5617;54.046;10.676;2022-08-01T08:51:23;2.00;;;1.80;;
11125;SDS011;5617;54.046;10.676;2022-08-01T08:53:32;2.83;;;1.90;;
11125;SDS011;5617;54.046;10.676;2022-08-01T08:55:42;6.30;;;2.50;;
11125;SDS011;5617;54.046;10.676;2022-08-01T08:57:51;2.77;;;2.50;;
11125;SDS011;5617;54.046;10.676;2022-08-01T08:59:59;4.47;;;2.30;;
11125;SDS011;5617;54.046;10.676;2022-08-01T09:02:09;3.10;;;2.40;;
11125;SDS011;5617;54.046;10.676;2022-08-01T09:04:17;3.40;;;2.20;;
11125;SDS011;5617;54.046;10.676;2022-08-01T09:06:28;5.07;;;2.33;;
11125;SDS011;5617;54.046;10.676;2022-08-01T09:08:36;2.70;;;2.30;;
11125;SDS011;5617;54.046;10.676;2022-08-01T09:10:44;2.73;;;2.03;;
11125;SDS011;5617;54.046;10.676;2022-08-01T09:13:03;2.63;;;1.70;;
11125;SDS011;5617;54.046;10.676;2022-08-01T09:15:12;2.13;;;1.80;;
11125;SDS011;5617;54.046;10.676;2022-08-01T09:17:20;2.13;;;1.80;;
11125;SDS011;5617;54.046;10.676;2022-08-01T09:19:34;2.20;;;1.40;;
11125;SDS011;5617;54.046;10.676;2022-08-01T09:21:54;4.07;;;1.33;;
11125;SDS011;5617;54.046;10.676;2022-08-01T09:24:12;2.53;;;1.30;;
11125;SDS011;5617;54.046;10.676;2022-08-01T09:26:22;2.33;;;1.20;;
11125;SDS011;5617;54.046;10.676;2022-08-01T09:28:37;1.03;;;0.90;;
11125;SDS011;5617;54.046;10.676;2022-08-01T09:30:46;1.40;;;0.90;;
11125;SDS011;5617;54.046;10.676;2022-08-01T09:32:54;2.57;;;1.03;;
11125;SDS011;5617;54.046;10.676;2022-08-01T09:35:22;2.40;;;1.00;;
11125;SDS011;5617;54.046;10.676;2022-08-01T09:37:30;2.00;;;1.20;;
11125;SDS011;5617;54.046;10.676;2022-08-01T09:39:38;2.93;;;1.10;;
11125;SDS011;5617;54.046;10.676;2022-08-01T09:41:49;3.37;;;1.20;;
11125;SDS011;5617;54.046;10.676;2022-08-01T09:43:58;4.00;;;1.30;;
11125;SDS011;5617;54.046;10.676;2022-08-01T09:46:09;3.50;;;1.40;;
11125;SDS011;5617;54.046;10.676;2022-08-01T09:48:19;3.87;;;1.40;;
11125;SDS011;5617;54.046;10.676;2022-08-01T09:50:38;3.47;;;1.10;;
11125;SDS011;5617;54.046;10.676;2022-08-01T09:52:52;3.03;;;1.37;;
11125;SDS011;5617;54.046;10.676;2022-08-01T09:55:02;3.90;;;1.73;;
11125;SDS011;5617;54.046;10.676;2022-08-01T09:57:13;1.90;;;1.10;;
11125;SDS011;5617;54.046;10.676;2022-08-01T09:59:24;3.67;;;1.40;;
11125;SDS011;5617;54.046;10.676;2022-08-01T10:01:43;3.00;;;1.30;;
11125;SDS011;5617;54.046;10.676;2022-08-01T10:04:07;4.13;;;1.40;;
11125;SDS011;5617;54.046;10.676;2022-08-01T10:06:18;5.60;;;1.67;;
11125;SDS011;5617;54.046;10.676;2022-08-01T10:08:28;2.30;;;1.33;;
11125;SDS011;5617;54.046;10.676;2022-08-01T10:11:05;4.07;;;1.27;;
11125;SDS011;5617;54.046;10.676;2022-08-01T10:13:14;1.67;;;1.20;;
11125;SDS011;5617;54.046;10.676;2022-08-01T10:15:23;2.60;;;1.40;;
11125;SDS011;5617;54.046;10.676;2022-08-01T10:17:32;2.93;;;1.30;;
11125;SDS011;5617;54.046;10.676;2022-08-01T10:19:42;4.70;;;1.53;;
11125;SDS011;5617;54.046;10.676;2022-08-01T10:21:51;3.97;;;1.50;;
11125;SDS011;5617;54.046;10.676;2022-08-01T10:24:01;3.53;;;1.40;;
11125;SDS011;5617;54.046;10.676;2022-08-01T10:26:10;3.37;;;1.43;;
11125;SDS011;5617;54.046;10.676;2022-08-01T10:28:20;4.93;;;1.50;;
11125;SDS011;5617;54.046;10.676;2022-08-01T10:30:31;5.20;;;1.50;;
11125;SDS011;5617;54.046;10.676;2022-08-01T10:32:38;3.60;;;1.33;;
11125;SDS011;5617;54.046;10.676;2022-08-01T10:34:48;3.07;;;1.30;;
11125;SDS011;5617;54.046;10.676;2022-08-01T10:36:56;2.93;;;1.37;;
11125;SDS011;5617;54.046;10.676;2022-08-01T10:39:04;2.27;;;1.27;;
11125;SDS011;5617;54.046;10.676;2022-08-01T10:41:12;3.80;;;1.80;;
11125;SDS011;5617;54.046;10.676;2022-08-01T10:43:22;4.27;;;1.60;;
11125;SDS011;5617;54.046;10.676;2022-08-01T10:45:31;3.93;;;1.50;;
11125;SDS011;5617;54.046;10.676;2022-08-01T10:47:40;4.87;;;1.77;;
11125;SDS011;5617;54.046;10.676;2022-08-01T10:49:56;3.63;;;1.47;;
11125;SDS011;5617;54.046;10.676;2022-08-01T10:52:13;8.73;;;2.03;;
11125;SDS011;5617;54.046;10.676;2022-08-01T10:54:23;5.43;;;1.50;;
11125;SDS011;5617;54.046;10.676;2022-08-01T10:56:38;4.23;;;1.47;;
11125;SDS011;5617;54.046;10.676;2022-08-01T10:58:47;5.03;;;1.57;;
11125;SDS011;5617;54.046;10.676;2022-08-01T11:01:16;5.27;;;1.70;;
11125;SDS011;5617;54.046;10.676;2022-08-01T11:03:32;3.70;;;1.20;;
11125;SDS011;5617;54.046;10.676;2022-08-01T11:05:41;5.27;;;1.60;;
11125;SDS011;5617;54.046;10.676;2022-08-01T11:07:52;4.10;;;1.63;;
11125;SDS011;5617;54.046;10.676;2022-08-01T11:10:02;4.87;;;1.57;;
11125;SDS011;5617;54.046;10.676;2022-08-01T11:12:11;4.90;;;1.57;;
11125;SDS011;5617;54.046;10.676;2022-08-01T11:14:21;4.67;;;1.50;;
11125;SDS011;5617;54.046;10.676;2022-08-01T11:16:30;7.53;;;1.50;;
11125;SDS011;5617;54.046;10.676;2022-08-01T11:18:39;5.97;;;1.70;;
11125;SDS011;5617;54.046;10.676;2022-08-01T11:20:57;4.50;;;1.57;;
11125;SDS011;5617;54.046;10.676;2022-08-01T11:28:22;4.07;;;1.50;;
11125;SDS011;5617;54.046;10.676;2022-08-01T11:30:32;3.47;;;1.30;;
11125;SDS011;5617;54.046;10.676;2022-08-01T11:32:46;4.67;;;1.37;;
11125;SDS011;5617;54.046;10.676;2022-08-01T11:34:56;5.07;;;1.60;;
11125;SDS011;5617;54.046;10.676;2022-08-01T11:39:30;2.77;;;1.20;;
11125;SDS011;5617;54.046;10.676;2022-08-01T11:41:38;4.13;;;1.40;;
11125;SDS011;5617;54.046;10.676;2022-08-01T11:43:56;4.97;;;1.40;;
11125;SDS011;5617;54.046;10.676;2022-08-01T11:46:04;4.00;;;1.17;;
11125;SDS011;5617;54.046;10.676;2022-08-01T11:48:18;4.93;;;1.40;;
11125;SDS011;5617;54.046;10.676;2022-08-01T11:50:30;4.13;;;1.30;;
11125;SDS011;5617;54.046;10.676;2022-08-01T11:52:41;4.63;;;1.50;;
11125;SDS011;5617;54.046;10.676;2022-08-01T11:54:51;2.93;;;1.27;;
11125;SDS011;5617;54.046;10.676;2022-08-01T11:57:00;4.90;;;1.33;;
11125;SDS011;5617;54.046;10.676;2022-08-01T11:59:10;5.67;;;1.60;;
11125;SDS011;5617;54.046;10.676;2022-08-01T12:01:17;4.27;;;1.60;;
11125;SDS011;5617;54.046;10.676;2022-08-01T12:03:27;5.53;;;1.50;;
11125;SDS011;5617;54.046;10.676;2022-08-01T12:05:35;3.53;;;1.30;;
11125;SDS011;5617;54.046;10.676;2022-08-01T12:07:43;3.17;;;1.40;;
11125;SDS011;5617;54.046;10.676;2022-08-01T12:09:56;5.40;;;1.90;;
11125;SDS011;5617;54.046;10.676;2022-08-01T12:12:06;2.97;;;1.10;;
11125;SDS011;5617;54.046;10.676;2022-08-01T12:14:20;3.40;;;1.30;;
11125;SDS011;5617;54.046;10.676;2022-08-01T12:16:28;4.80;;;1.63;;
11125;SDS011;5617;54.046;10.676;2022-08-01T12:18:38;3.50;;;1.40;;
11125;SDS011;5617;54.046;10.676;2022-08-01T12:20:47;6.60;;;1.50;;
11125;SDS011;5617;54.046;10.676;2022-08-01T12:22:55;3.67;;;1.40;;
11125;SDS011;5617;54.046;10.676;2022-08-01T12:25:07;4.30;;;1.43;;
11125;SDS011;5617;54.046;10.676;2022-08-01T12:27:23;4.43;;;1.40;;
11125;SDS011;5617;54.046;10.676;2022-08-01T12:29:35;5.50;;;1.40;;
11125;SDS011;5617;54.046;10.676;2022-08-01T12:31:43;3.73;;;1.23;;
11125;SDS011;5617;54.046;10.676;2022-08-01T12:33:52;4.00;;;1.50;;
11125;SDS011;5617;54.046;10.676;2022-08-01T12:36:00;4.73;;;1.40;;
11125;SDS011;5617;54.046;10.676;2022-08-01T12:38:13;3.93;;;1.40;;
11125;SDS011;5617;54.046;10.676;2022-08-01T12:40:22;4.07;;;1.43;;
11125;SDS011;5617;54.046;10.676;2022-08-01T12:42:30;6.13;;;1.23;;
11125;SDS011;5617;54.046;10.676;2022-08-01T12:44:38;2.03;;;1.13;;
11125;SDS011;5617;54.046;10.676;2022-08-01T12:46:47;3.17;;;1.20;;
11125;SDS011;5617;54.046;10.676;2022-08-01T12:48:55;3.23;;;1.17;;
11125;SDS011;5617;54.046;10.676;2022-08-01T12:51:03;3.80;;;1.20;;
11125;SDS011;5617;54.046;10.676;2022-08-01T12:53:12;2.57;;;1.30;;
11125;SDS011;5617;54.046;10.676;2022-08-01T12:55:20;4.20;;;1.27;;
11125;SDS011;5617;54.046;10.676;2022-08-01T12:57:30;2.73;;;1.00;;
11125;SDS011;5617;54.046;10.676;2022-08-01T12:59:37;1.93;;;1.27;;
11125;SDS011;5617;54.046;10.676;2022-08-01T13:01:46;2.37;;;1.00;;
11125;SDS011;5617;54.046;10.676;2022-08-01T13:03:58;3.80;;;1.23;;